createdAt,value
2018-01-28T00:02:24.136Z,78.69
2018-01-28T00:04:52.094Z,77.87
2018-01-28T00:07:20.537Z,78.18
2018-01-28T00:09:48.463Z,78.30
2018-01-28T00:12:16.454Z,78.30
2018-01-28T00:14:44.457Z,78.61
2018-01-28T00:17:12.406Z,78.66
2018-01-28T00:19:40.363Z,78.75
2018-01-28T00:22:08.394Z,78.86
2018-01-28T00:24:36.371Z,78.92
2018-01-28T00:27:04.347Z,79.33
2018-01-28T00:29:32.267Z,80.49
2018-01-28T00:32:00.284Z,81.44
2018-01-28T00:34:28.239Z,82.24
2018-01-28T00:36:56.187Z,82.81
2018-01-28T00:39:25.506Z,82.57
2018-01-28T00:41:53.537Z,83.52
2018-01-28T00:44:21.467Z,82.78
2018-01-28T00:46:49.454Z,84.00
2018-01-28T00:49:17.412Z,84.42
2018-01-28T00:51:45.393Z,85.23
2018-01-28T00:54:13.345Z,86.16
2018-01-28T00:56:41.314Z,87.64
2018-01-28T00:59:09.485Z,87.78
2018-01-28T01:01:37.557Z,89.05
2018-01-28T01:04:05.543Z,89.39
2018-01-28T01:06:33.500Z,89.85
2018-01-28T01:09:01.510Z,91.36
2018-01-28T01:11:29.456Z,91.79
2018-01-28T01:13:57.409Z,91.53
2018-01-28T01:16:25.342Z,91.54
2018-01-28T01:18:53.269Z,92.03
2018-01-28T01:21:22.035Z,92.66
2018-01-28T01:23:50.080Z,92.93
2018-01-28T01:26:18.017Z,92.31
2018-01-28T01:28:45.991Z,93.21
2018-01-28T01:31:13.923Z,93.34
2018-01-28T01:33:41.877Z,93.29
2018-01-28T01:36:09.964Z,93.46
2018-01-28T01:38:37.870Z,92.90
2018-01-28T01:41:05.832Z,93.09
2018-01-28T01:43:34.009Z,94.16
2018-01-28T01:46:02.046Z,93.82
2018-01-28T01:48:29.980Z,94.50
2018-01-28T01:50:58.020Z,95.01
2018-01-28T01:53:26.025Z,95.04
2018-01-28T01:55:53.954Z,94.46
2018-01-28T01:58:21.956Z,95.32
2018-01-28T02:00:49.974Z,95.13
2018-01-28T02:03:18.022Z,94.63
2018-01-28T02:05:45.972Z,95.27
2018-01-28T02:08:13.915Z,94.54
2018-01-28T02:10:41.853Z,95.08
2018-01-28T02:13:09.853Z,95.42
2018-01-28T02:15:37.833Z,95.36
2018-01-28T02:18:05.895Z,95.15
2018-01-28T02:20:34.009Z,95.44
2018-01-28T02:23:02.653Z,95.61
2018-01-28T02:25:30.693Z,95.61
2018-01-28T02:27:58.627Z,95.36
2018-01-28T02:30:26.664Z,95.04
2018-01-28T02:32:54.780Z,95.55
2018-01-28T02:35:22.870Z,95.58
2018-01-28T02:37:50.805Z,95.51
2018-01-28T02:40:18.739Z,95.30
2018-01-28T02:42:46.809Z,95.45
2018-01-28T02:45:14.959Z,95.38
2018-01-28T02:47:42.943Z,94.97
2018-01-28T02:50:10.889Z,95.15
2018-01-28T02:52:38.822Z,95.20
2018-01-28T02:55:06.750Z,95.69
2018-01-28T02:57:34.763Z,95.94
2018-01-28T03:00:02.789Z,95.71
2018-01-28T03:02:30.864Z,96.03
2018-01-28T03:04:58.764Z,95.61
2018-01-28T03:07:26.699Z,95.44
2018-01-28T03:09:54.603Z,95.14
2018-01-28T03:12:22.536Z,95.30
2018-01-28T03:14:50.505Z,95.73
2018-01-28T03:17:18.505Z,95.12
2018-01-28T03:19:47.307Z,95.12
2018-01-28T03:22:15.259Z,94.59
2018-01-28T03:24:43.367Z,94.33
2018-01-28T03:27:11.273Z,94.36
2018-01-28T03:29:39.240Z,94.72
2018-01-28T03:32:07.190Z,94.55
2018-01-28T03:34:35.159Z,94.07
2018-01-28T03:37:03.084Z,94.59
2018-01-28T03:39:31.034Z,94.71
2018-01-28T03:41:58.964Z,94.44
2018-01-28T03:44:26.897Z,94.13
2018-01-28T03:46:54.908Z,93.90
2018-01-28T03:49:22.844Z,94.10
2018-01-28T03:51:50.761Z,94.50
2018-01-28T03:54:18.730Z,94.77
2018-01-28T03:56:46.677Z,94.13
2018-01-28T03:59:14.606Z,94.07
2018-01-28T04:01:42.981Z,94.17
2018-01-28T04:04:10.917Z,93.72
2018-01-28T04:06:38.921Z,93.67
2018-01-28T04:09:07.341Z,94.49
2018-01-28T04:11:35.289Z,94.60
2018-01-28T04:14:03.299Z,94.21
2018-01-28T04:16:31.681Z,94.42
2018-01-28T04:19:00.000Z,94.75
2018-01-28T04:21:27.994Z,94.98
2018-01-28T04:23:55.940Z,94.78
2018-01-28T04:26:24.397Z,94.62
2018-01-28T04:28:52.312Z,94.28
2018-01-28T04:31:20.233Z,94.40
2018-01-28T04:33:48.157Z,93.85
2018-01-28T04:36:16.106Z,94.07
2018-01-28T04:38:44.858Z,94.30
2018-01-28T04:41:12.919Z,94.33
2018-01-28T04:43:40.836Z,94.14
2018-01-28T04:46:08.768Z,93.61
2018-01-28T04:48:36.698Z,93.50
2018-01-28T04:51:04.664Z,92.81
2018-01-28T04:53:32.718Z,92.91
2018-01-28T04:56:00.652Z,92.71
2018-01-28T04:58:29.333Z,92.94
2018-01-28T05:00:57.297Z,93.27
2018-01-28T05:03:25.352Z,93.43
2018-01-28T05:05:53.560Z,93.40
2018-01-28T05:08:21.479Z,92.64
2018-01-28T05:10:49.408Z,93.13
2018-01-28T05:13:17.351Z,93.17
2018-01-28T05:15:45.281Z,93.40
2018-01-28T05:18:13.235Z,92.82
2018-01-28T05:20:41.158Z,93.25
2018-01-28T05:23:09.092Z,91.98
2018-01-28T05:25:37.061Z,92.37
2018-01-28T05:28:04.981Z,92.37
2018-01-28T05:30:32.915Z,92.66
2018-01-28T05:33:00.925Z,92.31
2018-01-28T05:35:28.852Z,92.24
2018-01-28T05:37:56.861Z,92.29
2018-01-28T05:40:24.862Z,91.97
2018-01-28T05:42:52.792Z,91.85
2018-01-28T05:45:20.714Z,92.30
2018-01-28T05:47:48.734Z,92.62
2018-01-28T05:50:16.641Z,92.68
2018-01-28T05:52:44.599Z,92.37
2018-01-28T05:55:12.503Z,92.56
2018-01-28T05:57:40.504Z,92.09
2018-01-28T06:00:08.513Z,91.19
2018-01-28T06:02:36.469Z,91.66
2018-01-28T06:05:04.657Z,91.03
2018-01-28T06:07:33.475Z,90.86
2018-01-28T06:10:01.465Z,90.50
2018-01-28T06:12:29.390Z,90.49
2018-01-28T06:14:57.361Z,89.89
2018-01-28T06:17:25.264Z,89.37
2018-01-28T06:19:53.278Z,89.35
2018-01-28T06:22:21.210Z,89.34
2018-01-28T06:24:49.306Z,88.66
2018-01-28T06:27:17.289Z,89.55
2018-01-28T06:29:45.302Z,88.50
2018-01-28T06:32:13.213Z,88.09
2018-01-28T06:34:41.328Z,88.25
2018-01-28T06:37:09.598Z,88.40
2018-01-28T06:39:37.550Z,87.80
2018-01-28T06:42:05.866Z,88.02
2018-01-28T06:44:33.841Z,87.86
2018-01-28T06:47:02.520Z,88.95
2018-01-28T06:49:30.493Z,87.70
2018-01-28T06:51:58.425Z,88.00
2018-01-28T06:54:26.369Z,87.57
2018-01-28T06:56:54.298Z,88.30
2018-01-28T06:59:22.426Z,87.93
2018-01-28T07:01:50.333Z,87.69
2018-01-28T07:04:18.249Z,87.10
2018-01-28T07:06:46.271Z,87.15
2018-01-28T07:09:14.240Z,87.20
2018-01-28T07:11:42.182Z,86.59
2018-01-28T07:14:10.145Z,87.40
2018-01-28T07:16:38.151Z,88.12
2018-01-28T07:19:06.044Z,87.48
2018-01-28T07:21:33.973Z,86.79
2018-01-28T07:24:01.890Z,86.74
2018-01-28T07:26:29.801Z,86.66
2018-01-28T07:28:57.780Z,86.51
2018-01-28T07:31:25.693Z,86.75
2018-01-28T07:33:53.593Z,86.05
2018-01-28T07:36:21.516Z,86.47
2018-01-28T07:38:49.434Z,86.86
2018-01-28T07:41:17.408Z,86.50
2018-01-28T07:43:45.328Z,86.67
2018-01-28T07:46:13.253Z,86.86
2018-01-28T07:48:46.853Z,86.74
2018-01-28T07:51:14.762Z,86.43
2018-01-28T07:53:42.714Z,86.79
2018-01-28T07:56:10.637Z,86.24
2018-01-28T07:58:38.552Z,86.99
2018-01-28T08:01:06.493Z,86.70
2018-01-28T08:03:34.452Z,85.96
2018-01-28T08:06:02.361Z,86.20
2018-01-28T08:08:31.058Z,86.25
2018-01-28T08:10:59.911Z,86.02
2018-01-28T08:13:27.862Z,85.93
2018-01-28T08:15:55.777Z,85.66
2018-01-28T08:18:23.744Z,86.02
2018-01-28T08:20:51.668Z,86.03
2018-01-28T08:23:19.578Z,84.67
2018-01-28T08:25:47.579Z,84.95
2018-01-28T08:28:19.033Z,84.14
2018-01-28T08:30:46.969Z,84.48
2018-01-28T08:33:14.906Z,84.90
2018-01-28T08:35:42.833Z,84.94
2018-01-28T08:38:10.774Z,84.01
2018-01-28T08:40:38.745Z,84.17
2018-01-28T08:43:06.649Z,83.72
2018-01-28T08:45:34.632Z,84.22
2018-01-28T08:48:02.573Z,84.19
2018-01-28T08:50:30.506Z,83.39
2018-01-28T08:52:58.437Z,83.84
2018-01-28T08:55:26.361Z,83.84
2018-01-28T08:57:54.273Z,83.23
2018-01-28T09:00:22.213Z,83.75
2018-01-28T09:02:50.161Z,83.04
2018-01-28T09:05:18.091Z,82.25
2018-01-28T09:07:46.006Z,81.49
2018-01-28T09:10:13.970Z,81.67
2018-01-28T09:12:41.898Z,80.61
2018-01-28T09:15:09.860Z,80.59
2018-01-28T09:17:37.802Z,80.97
2018-01-28T09:20:05.733Z,82.39
2018-01-28T09:22:33.660Z,79.78
2018-01-28T09:25:01.600Z,78.89
2018-01-28T09:27:29.513Z,80.20
2018-01-28T09:29:57.485Z,79.77
2018-01-28T09:32:25.441Z,79.66
2018-01-28T09:35:03.686Z,80.42
2018-01-28T09:37:35.240Z,80.20
2018-01-28T09:40:03.477Z,80.01
2018-01-28T09:42:31.841Z,79.69
2018-01-28T09:45:01.538Z,81.59
2018-01-28T09:47:29.599Z,79.92
2018-01-28T09:49:58.002Z,79.46
2018-01-28T09:52:26.232Z,79.24
2018-01-28T09:54:54.303Z,80.17
2018-01-28T09:57:25.486Z,79.46
2018-01-28T09:59:53.653Z,79.41
2018-01-28T10:02:22.607Z,79.96
2018-01-28T10:04:51.233Z,79.34
2018-01-28T10:07:22.075Z,78.78
2018-01-28T10:09:50.714Z,79.84
2018-01-28T10:12:18.755Z,78.85
2018-01-28T10:14:47.574Z,79.01
2018-01-28T10:17:15.578Z,78.53
2018-01-28T10:19:44.562Z,78.76
2018-01-28T10:22:13.303Z,78.67
2018-01-28T10:24:41.941Z,79.23
2018-01-28T10:27:10.101Z,77.54
2018-01-28T10:29:38.489Z,77.47
2018-01-28T10:32:06.852Z,77.86
2018-01-28T10:34:36.457Z,76.47
2018-01-28T10:37:04.544Z,77.32
2018-01-28T10:39:33.944Z,77.38
2018-01-28T10:42:02.501Z,78.05
2018-01-28T10:44:31.841Z,76.62
2018-01-28T10:46:59.778Z,76.57
2018-01-28T10:49:28.030Z,76.50
2018-01-28T10:51:56.792Z,76.92
2018-01-28T10:54:29.936Z,76.30
2018-01-28T10:56:58.471Z,77.31
2018-01-28T10:59:27.010Z,76.31
2018-01-28T11:01:58.127Z,77.09
2018-01-28T11:04:26.164Z,76.67
2018-01-28T11:06:54.307Z,76.24
2018-01-28T11:09:23.980Z,77.13
2018-01-28T11:11:52.777Z,77.40
2018-01-28T11:14:25.241Z,76.55
2018-01-28T11:16:55.601Z,76.69
2018-01-28T11:19:27.232Z,76.76
2018-01-28T11:21:56.248Z,76.40
2018-01-28T11:24:25.834Z,76.38
2018-01-28T11:26:55.032Z,76.47
2018-01-28T11:29:24.419Z,76.18
2018-01-28T11:31:54.553Z,75.89
2018-01-28T11:34:25.709Z,76.35
2018-01-28T11:36:57.380Z,76.31
2018-01-28T11:39:26.647Z,76.72
2018-01-28T11:41:58.134Z,76.55
2018-01-28T11:44:28.249Z,75.92
2018-01-28T11:46:57.657Z,75.89
2018-01-28T11:49:27.228Z,75.52
2018-01-28T11:51:57.385Z,75.01
2018-01-28T11:54:26.766Z,75.48
2018-01-28T11:56:56.496Z,74.44
2018-01-28T11:59:26.543Z,74.64
2018-01-28T12:01:58.329Z,73.87
2018-01-28T12:04:26.373Z,73.40
2018-01-28T12:06:55.606Z,73.65
2018-01-28T12:09:24.084Z,73.83
2018-01-28T12:11:52.815Z,74.19
2018-01-28T12:14:21.870Z,74.18
2018-01-28T12:16:52.175Z,73.77
2018-01-28T12:19:21.228Z,73.05
2018-01-28T12:21:51.312Z,73.39
2018-01-28T12:24:22.556Z,73.21
2018-01-28T12:26:52.162Z,73.28
2018-01-28T12:29:22.563Z,74.14
2018-01-28T12:31:53.704Z,73.53
2018-01-28T12:34:23.035Z,73.78
2018-01-28T12:36:51.763Z,73.54
2018-01-28T12:39:21.091Z,73.54
2018-01-28T12:41:50.154Z,72.74
2018-01-28T12:44:19.287Z,72.83
2018-01-28T12:46:48.479Z,72.51
2018-01-28T12:49:17.145Z,72.72
2018-01-28T12:51:47.549Z,73.35
2018-01-28T12:54:15.899Z,72.79
2018-01-28T12:56:45.180Z,73.09
2018-01-28T12:59:15.012Z,73.56
2018-01-28T13:01:44.108Z,74.00
2018-01-28T13:04:12.463Z,73.38
2018-01-28T13:06:44.879Z,73.35
2018-01-28T13:09:15.066Z,72.17
2018-01-28T13:11:43.924Z,72.40
2018-01-28T13:14:13.067Z,73.60
2018-01-28T13:16:44.390Z,72.26
2018-01-28T13:19:14.113Z,72.42
2018-01-28T13:21:42.109Z,72.12
2018-01-28T13:24:13.900Z,72.38
2018-01-28T13:26:42.687Z,73.15
2018-01-28T13:29:11.110Z,72.06
2018-01-28T13:31:40.440Z,72.96
2018-01-28T13:34:08.844Z,72.58
2018-01-28T13:36:37.236Z,72.44
2018-01-28T13:39:05.780Z,72.34
2018-01-28T13:41:35.065Z,71.96
2018-01-28T13:44:04.016Z,71.89
2018-01-28T13:46:33.293Z,72.50
2018-01-28T13:49:03.230Z,72.60
2018-01-28T13:51:32.645Z,72.15
2018-01-28T13:54:01.462Z,72.47
2018-01-28T13:56:31.822Z,72.60
2018-01-28T13:59:01.733Z,73.32
2018-01-28T14:01:30.761Z,72.35
2018-01-28T14:03:59.439Z,71.56
2018-01-28T14:06:28.145Z,72.47
2018-01-28T14:08:57.126Z,72.30
2018-01-28T14:11:25.568Z,72.94
2018-01-28T14:13:57.307Z,72.77
2018-01-28T14:16:26.030Z,72.27
2018-01-28T14:18:55.005Z,72.74
2018-01-28T14:21:24.128Z,72.77
2018-01-28T14:23:52.266Z,72.66
2018-01-28T14:26:20.896Z,72.45
2018-01-28T14:28:49.872Z,72.58
2018-01-28T14:31:20.112Z,72.74
2018-01-28T14:33:48.561Z,73.19
2018-01-28T14:36:18.275Z,73.53
2018-01-28T14:38:47.097Z,73.19
2018-01-28T14:41:16.951Z,73.44
2018-01-28T14:43:47.386Z,72.93
2018-01-28T14:46:15.952Z,73.50
2018-01-28T14:48:47.129Z,74.34
2018-01-28T14:51:17.354Z,73.86
2018-01-28T14:53:48.156Z,74.54
2018-01-28T14:56:19.198Z,74.90
2018-01-28T14:58:48.906Z,74.67
2018-01-28T15:01:19.232Z,74.57
2018-01-28T15:03:47.918Z,74.66
2018-01-28T15:06:16.291Z,75.35
2018-01-28T15:08:46.094Z,75.11
2018-01-28T15:11:15.243Z,74.37
2018-01-28T15:13:43.498Z,75.11
2018-01-28T15:16:12.263Z,75.42
2018-01-28T15:18:41.585Z,77.29
2018-01-28T15:21:11.429Z,75.44
2018-01-28T15:23:42.306Z,75.47
2018-01-28T15:26:12.979Z,75.34
2018-01-28T15:28:42.991Z,75.54
2018-01-28T15:31:11.121Z,75.33
2018-01-28T15:33:40.537Z,76.31
2018-01-28T15:36:09.699Z,76.01
2018-01-28T15:38:37.811Z,75.41
2018-01-28T15:41:06.811Z,75.87
2018-01-28T15:43:35.997Z,75.85
2018-01-28T15:46:04.010Z,76.47
2018-01-28T15:48:31.973Z,76.43
2018-01-28T15:51:00.043Z,76.46
2018-01-28T15:53:28.013Z,76.27
2018-01-28T15:55:56.062Z,76.87
2018-01-28T15:58:24.055Z,76.49
2018-01-28T16:00:53.375Z,76.50
2018-01-28T16:03:21.366Z,75.91
2018-01-28T16:05:49.329Z,76.33
2018-01-28T16:08:17.347Z,76.82
2018-01-28T16:10:45.910Z,76.59
2018-01-28T16:13:14.735Z,76.60
2018-01-28T16:15:42.741Z,77.29
2018-01-28T16:18:10.740Z,76.73
2018-01-28T16:20:38.779Z,76.70
2018-01-28T16:23:06.796Z,77.15
2018-01-28T16:25:34.797Z,77.61
2018-01-28T16:28:02.846Z,78.13
2018-01-28T16:30:30.857Z,78.42
2018-01-28T16:32:58.857Z,78.56
2018-01-28T16:35:26.927Z,79.85
2018-01-28T16:37:54.882Z,81.08
2018-01-28T16:40:22.912Z,82.29
2018-01-28T16:42:50.998Z,83.51
2018-01-28T16:45:20.239Z,84.42
2018-01-28T16:47:48.611Z,85.96
2018-01-28T16:50:16.564Z,86.29
2018-01-28T16:52:44.663Z,86.47
2018-01-28T16:55:13.076Z,86.70
2018-01-28T16:57:41.902Z,87.04
2018-01-28T17:00:09.898Z,86.61
2018-01-28T17:02:37.918Z,87.92
2018-01-28T17:05:05.953Z,88.41
2018-01-28T17:07:33.983Z,89.52
2018-01-28T17:10:02.956Z,90.14
2018-01-28T17:12:31.057Z,90.84
2018-01-28T17:14:59.153Z,91.23
2018-01-28T17:17:27.390Z,91.02
2018-01-28T17:19:55.374Z,91.79
2018-01-28T17:22:23.465Z,91.33
2018-01-28T17:24:52.126Z,91.92
2018-01-28T17:27:20.142Z,91.27
2018-01-28T17:29:48.122Z,90.92
2018-01-28T17:32:16.204Z,91.84
2018-01-28T17:34:44.277Z,91.05
2018-01-28T17:37:12.356Z,92.41
2018-01-28T17:39:40.600Z,92.61
2018-01-28T17:42:09.009Z,92.74
2018-01-28T17:44:37.082Z,93.05
2018-01-28T17:47:05.115Z,92.24
2018-01-28T17:49:33.817Z,93.24
2018-01-28T17:52:02.369Z,93.46
2018-01-28T17:54:30.371Z,93.11
2018-01-28T17:56:58.412Z,93.53
2018-01-28T17:59:26.395Z,94.01
2018-01-28T18:01:54.392Z,94.59
2018-01-28T18:04:23.767Z,94.97
2018-01-28T18:06:51.851Z,94.47
2018-01-28T18:09:20.832Z,94.38
2018-01-28T18:11:48.908Z,94.72
2018-01-28T18:14:16.996Z,93.97
2018-01-28T18:16:44.975Z,93.71
2018-01-28T18:19:13.735Z,94.33
2018-01-28T18:21:41.719Z,94.40
2018-01-28T18:24:09.670Z,94.79
2018-01-28T18:26:37.750Z,94.71
2018-01-28T18:29:05.763Z,94.84
2018-01-28T18:31:33.810Z,94.78
2018-01-28T18:34:01.884Z,94.50
2018-01-28T18:36:29.935Z,94.29
2018-01-28T18:38:58.740Z,95.26
2018-01-28T18:41:27.234Z,95.72
2018-01-28T18:43:55.293Z,95.75
2018-01-28T18:46:23.467Z,95.20
2018-01-28T18:48:51.419Z,95.20
2018-01-28T18:51:19.429Z,95.07
2018-01-28T18:53:47.412Z,94.89
2018-01-28T18:56:16.383Z,94.55
2018-01-28T18:58:44.335Z,94.69
2018-01-28T19:01:12.363Z,94.46
2018-01-28T19:03:40.287Z,93.75
2018-01-28T19:06:08.550Z,94.11
2018-01-28T19:08:36.851Z,94.05
2018-01-28T19:11:04.836Z,94.23
2018-01-28T19:13:33.173Z,95.14
2018-01-28T19:16:01.223Z,94.52
2018-01-28T19:18:29.290Z,94.33
2018-01-28T19:20:57.431Z,94.22
2018-01-28T19:23:25.398Z,93.63
2018-01-28T19:25:53.471Z,93.11
2018-01-28T19:28:22.230Z,93.12
2018-01-28T19:30:50.233Z,94.11
2018-01-28T19:33:18.466Z,94.39
2018-01-28T19:35:48.706Z,94.49
2018-01-28T19:38:17.316Z,94.57
2018-01-28T19:40:45.374Z,95.04
2018-01-28T19:43:13.513Z,94.26
2018-01-28T19:45:41.637Z,94.77
2018-01-28T19:48:10.686Z,95.21
2018-01-28T19:50:38.761Z,94.99
2018-01-28T19:53:06.925Z,95.46
2018-01-28T19:55:34.934Z,95.27
2018-01-28T19:58:03.638Z,95.17
2018-01-28T20:00:31.668Z,95.72
2018-01-28T20:03:00.768Z,94.83
2018-01-28T20:05:29.225Z,95.21
2018-01-28T20:07:57.976Z,94.98
2018-01-28T20:10:25.908Z,95.55
2018-01-28T20:12:53.842Z,95.59
2018-01-28T20:15:22.431Z,96.46
2018-01-28T20:17:50.347Z,95.65
2018-01-28T20:20:18.272Z,96.04
2018-01-28T20:22:46.840Z,96.13
2018-01-28T20:25:14.860Z,96.17
2018-01-28T20:27:42.812Z,96.09
2018-01-28T20:30:10.714Z,96.71
2018-01-28T20:32:38.672Z,96.20
2018-01-28T20:35:06.597Z,96.58
2018-01-28T20:37:34.549Z,96.68
2018-01-28T20:40:02.467Z,97.22
2018-01-28T20:42:30.545Z,96.81
2018-01-28T20:44:59.096Z,96.98
2018-01-28T20:47:27.833Z,96.93
2018-01-28T20:49:56.762Z,96.43
2018-01-28T20:52:25.242Z,96.37
2018-01-28T20:54:53.541Z,96.64
2018-01-28T20:57:21.727Z,96.87
2018-01-28T20:59:49.829Z,96.80
2018-01-28T21:02:18.062Z,96.37
2018-01-28T21:04:46.236Z,96.40
2018-01-28T21:07:15.230Z,95.97
2018-01-28T21:09:43.149Z,96.38
2018-01-28T21:12:11.791Z,95.84
2018-01-28T21:14:39.781Z,95.64
2018-01-28T21:17:07.826Z,95.17
2018-01-28T21:19:35.967Z,95.49
2018-01-28T21:22:04.891Z,95.44
2018-01-28T21:24:33.745Z,95.68
2018-01-28T21:27:01.854Z,95.79
2018-01-28T21:29:29.874Z,95.33
2018-01-28T21:31:57.789Z,95.31
2018-01-28T21:34:26.888Z,95.01
2018-01-28T21:36:54.763Z,94.57
2018-01-28T21:39:22.720Z,93.94
2018-01-28T21:41:50.728Z,93.78
2018-01-28T21:44:20.339Z,94.25
2018-01-28T21:46:48.681Z,94.30
2018-01-28T21:51:51.529Z,94.65
2018-01-28T21:54:19.529Z,94.33
2018-01-28T21:56:47.536Z,94.10
2018-01-28T21:59:16.141Z,94.28
2018-01-28T22:01:44.181Z,94.21
2018-01-28T22:04:12.196Z,94.15
2018-01-28T22:06:40.222Z,95.05
2018-01-28T22:09:10.031Z,94.75
2018-01-28T22:11:41.715Z,94.82
2018-01-28T22:14:10.491Z,94.98
2018-01-28T22:16:40.478Z,94.59
2018-01-28T22:19:08.571Z,94.38
2018-01-28T22:21:36.950Z,94.73
2018-01-28T22:24:04.994Z,95.36
2018-01-28T22:26:33.032Z,95.14
2018-01-28T22:29:01.058Z,94.76
2018-01-28T22:31:29.033Z,94.73
2018-01-28T22:33:57.812Z,95.20
2018-01-28T22:36:25.764Z,95.30
2018-01-28T22:38:54.512Z,95.32
2018-01-28T22:41:22.677Z,94.89
2018-01-28T22:43:50.738Z,95.14
2018-01-28T22:46:18.793Z,94.33
2018-01-28T22:48:47.394Z,93.56
2018-01-28T22:51:15.370Z,93.92
2018-01-28T22:53:43.573Z,93.54
2018-01-28T22:56:11.616Z,93.66
2018-01-28T22:58:41.737Z,93.51
2018-01-28T23:01:09.868Z,93.82
2018-01-28T23:03:37.924Z,93.95
2018-01-28T23:06:06.237Z,93.78
2018-01-28T23:08:34.531Z,93.69
2018-01-28T23:11:02.586Z,93.53
2018-01-28T23:13:31.609Z,94.10
2018-01-28T23:16:00.381Z,93.95
2018-01-28T23:18:29.230Z,93.64
2018-01-28T23:20:57.640Z,94.40
2018-01-28T23:23:25.792Z,94.51
2018-01-28T23:25:54.067Z,93.77
2018-01-28T23:28:22.163Z,93.94
2018-01-28T23:30:50.288Z,94.14
2018-01-28T23:33:19.537Z,93.80
2018-01-28T23:35:48.552Z,94.14
2018-01-28T23:38:17.730Z,94.64
2018-01-28T23:40:46.809Z,94.87
2018-01-28T23:43:15.008Z,94.69
2018-01-28T23:45:43.094Z,94.54
2018-01-28T23:48:11.242Z,94.65
2018-01-28T23:50:41.264Z,94.29
2018-01-28T23:53:11.469Z,94.41
2018-01-28T23:55:39.664Z,94.62
2018-01-28T23:58:07.858Z,94.72
